Time;durP1;ratioP1;P1;durP2;ratioP2;P2;SDS_P1;SDS_P2;PMS_P1;PMS_P2;Temp;Humidity;BMP_temperature;BMP_pressure;BME280_temperature;BME280_humidity;BME280_pressure;Samples;Min_cycle;Max_cycle;Signal;HPM_P1;HPM_P2
2023/06/10 00:00:42;;;;;;;9.32;8.48;;;22.70;1.00;;;;;;5056120;28;20256;-69
2023/06/10 00:03:09;;;;;;;10.77;9.77;;;22.70;1.00;;;;;;5038524;28;20276;-67
2023/06/10 00:05:35;;;;;;;10.40;8.50;;;22.70;1.00;;;;;;5056339;28;20161;-68
2023/06/10 00:08:07;;;;;;;10.27;9.38;;;22.60;1.00;;;;;;5056164;28;20746;-68
2023/06/10 00:10:35;;;;;;;10.10;9.05;;;22.60;1.00;;;;;;5038180;28;20181;-68
2023/06/10 00:13:01;;;;;;;10.88;9.77;;;22.50;28.60;;;;;;5038378;28;20637;-69
2023/06/10 00:15:26;;;;;;;13.63;10.85;;;22.50;99.90;;;;;;5038072;28;20174;-68
2023/06/10 00:17:52;;;;;;;15.07;13.55;;;22.40;99.90;;;;;;5056089;28;20532;-68
2023/06/10 00:20:18;;;;;;;13.32;11.48;;;22.40;99.90;;;;;;5056012;28;20644;-68
2023/06/10 00:22:45;;;;;;;19.50;16.65;;;22.40;99.90;;;;;;5056039;28;20170;-68
2023/06/10 00:25:11;;;;;;;18.67;15.68;;;22.30;99.90;;;;;;5055820;28;20186;-68
2023/06/10 00:27:36;;;;;;;11.45;9.88;;;22.30;99.90;;;;;;5055707;28;20242;-68
2023/06/10 00:30:06;;;;;;;13.80;11.15;;;22.20;99.90;;;;;;5055544;28;20181;-68
2023/06/10 00:32:32;;;;;;;11.20;10.10;;;22.20;99.90;;;;;;5037858;28;20173;-68
2023/06/10 00:34:58;;;;;;;15.05;13.43;;;22.10;99.90;;;;;;5055442;28;20221;-67
2023/06/10 00:37:23;;;;;;;18.65;14.48;;;22.10;99.90;;;;;;5055443;28;20169;-68
2023/06/10 00:39:49;;;;;;;12.05;10.95;;;22.10;99.90;;;;;;5055488;28;20514;-68
2023/06/10 00:42:15;;;;;;;14.18;12.68;;;22.10;99.90;;;;;;5055851;28;20606;-68
2023/06/10 00:44:40;;;;;;;17.42;15.50;;;22.10;99.90;;;;;;5055129;28;20748;-70
2023/06/10 00:47:07;;;;;;;23.70;17.73;;;22.00;99.90;;;;;;5055487;28;20249;-68
2023/06/10 00:49:34;;;;;;;29.90;21.67;;;22.00;99.90;;;;;;5055457;28;20660;-67
2023/06/10 00:52:01;;;;;;;17.50;13.02;;;22.00;99.90;;;;;;5037666;28;20177;-68
2023/06/10 00:54:27;;;;;;;20.17;16.55;;;22.00;99.90;;;;;;5055558;28;20256;-68
2023/06/10 00:56:53;;;;;;;14.25;12.55;;;21.90;99.90;;;;;;5055189;28;20257;-67
2023/06/10 00:59:19;;;;;;;20.65;18.50;;;21.90;99.90;;;;;;5055036;28;20189;-68
2023/06/10 01:01:47;;;;;;;12.23;11.05;;;21.90;99.90;;;;;;5055344;28;20169;-69
2023/06/10 01:04:13;;;;;;;12.88;10.45;;;21.80;99.90;;;;;;5055145;28;20686;-68
2023/06/10 01:06:57;;;;;;;11.00;10.00;;;21.80;99.90;;;;;;5054958;28;20249;-68
2023/06/10 01:09:37;;;;;;;13.57;12.02;;;21.80;99.90;;;;;;5055180;28;20181;-68
2023/06/10 01:12:14;;;;;;;10.25;9.35;;;21.80;99.90;;;;;;5055123;28;20236;-68
2023/06/10 01:14:44;;;;;;;11.60;10.52;;;21.80;99.90;;;;;;5054685;28;20214;-68
2023/06/10 01:17:11;;;;;;;13.00;11.60;;;21.80;99.90;;;;;;5054902;28;20173;-69
2023/06/10 01:19:37;;;;;;;12.13;10.88;;;21.80;99.90;;;;;;5054948;28;20174;-67
2023/06/10 01:22:03;;;;;;;13.65;12.23;;;21.80;99.90;;;;;;5054965;28;20180;-69
2023/06/10 01:24:32;;;;;;;16.73;13.27;;;21.70;99.90;;;;;;5055184;28;20173;-69
2023/06/10 01:27:01;;;;;;;22.35;17.30;;;21.60;99.90;;;;;;5054692;28;20177;-68
2023/06/10 01:29:48;;;;;;;17.90;13.60;;;21.70;99.90;;;;;;5054408;28;20178;-67
2023/06/10 01:32:27;;;;;;;16.25;13.13;;;21.60;99.90;;;;;;5036754;28;20266;-68
2023/06/10 01:34:55;;;;;;;14.68;12.35;;;21.60;99.90;;;;;;5054616;28;20227;-68
2023/06/10 01:37:26;;;;;;;12.90;11.15;;;21.50;99.90;;;;;;5054570;28;20173;-69
2023/06/10 01:39:54;;;;;;;11.05;10.05;;;21.50;1.00;;;;;;5053995;28;20254;-68
2023/06/10 01:42:21;;;;;;;10.40;9.50;;;21.50;1.00;;;;;;5054081;28;20620;-68
2023/06/10 01:44:46;;;;;;;10.15;9.32;;;21.40;1.00;;;;;;5054312;28;20193;-68
2023/06/10 01:47:12;;;;;;;11.57;10.38;;;21.40;1.00;;;;;;5054313;28;20169;-69
2023/06/10 01:49:38;;;;;;;11.63;10.52;;;21.40;1.00;;;;;;5054465;28;20610;-68
2023/06/10 01:52:04;;;;;;;12.18;10.85;;;21.40;1.00;;;;;;5054330;28;20173;-68
2023/06/10 01:54:29;;;;;;;11.10;9.68;;;21.40;1.00;;;;;;5054175;28;20532;-67
2023/06/10 01:56:55;;;;;;;11.10;9.85;;;21.30;1.00;;;;;;5053688;28;20169;-68
2023/06/10 01:59:21;;;;;;;12.50;9.43;;;21.30;1.00;;;;;;5037699;28;20264;-68
2023/06/10 02:01:46;;;;;;;10.43;9.45;;;21.20;1.00;;;;;;5062761;28;20166;-67
2023/06/10 02:04:12;;;;;;;10.57;9.55;;;21.20;1.00;;;;;;5054343;28;20633;-68
2023/06/10 02:06:38;;;;;;;12.23;9.82;;;21.20;1.00;;;;;;5036372;28;20172;-69
2023/06/10 02:09:03;;;;;;;16.27;9.65;;;21.20;1.00;;;;;;5036069;28;20236;-67
2023/06/10 02:11:29;;;;;;;11.00;9.55;;;21.10;1.00;;;;;;5053628;28;20617;-67
2023/06/10 02:13:55;;;;;;;11.50;9.65;;;21.10;1.00;;;;;;5036133;28;20639;-68
2023/06/10 02:16:21;;;;;;;11.82;10.60;;;21.00;1.00;;;;;;5053921;28;20196;-67
2023/06/10 02:18:48;;;;;;;11.48;9.98;;;21.00;1.00;;;;;;5053815;28;20211;-67
2023/06/10 02:21:14;;;;;;;12.70;11.35;;;20.90;1.00;;;;;;5035794;28;20621;-67
2023/06/10 02:23:40;;;;;;;12.45;10.35;;;20.90;1.00;;;;;;5053750;28;20184;-68
2023/06/10 02:26:05;;;;;;;13.82;9.93;;;20.80;1.00;;;;;;5035486;28;20611;-68
2023/06/10 02:28:31;;;;;;;13.38;10.35;;;20.80;1.00;;;;;;5053504;28;20209;-68
2023/06/10 02:30:57;;;;;;;14.30;10.00;;;20.80;1.00;;;;;;5053710;28;20170;-68
2023/06/10 02:33:24;;;;;;;12.13;10.35;;;20.70;1.00;;;;;;5053747;28;20260;-68
2023/06/10 02:35:50;;;;;;;15.20;10.32;;;20.70;1.00;;;;;;5053281;28;20233;-67
2023/06/10 02:38:16;;;;;;;12.48;10.07;;;20.60;1.00;;;;;;5053570;28;20256;-68
2023/06/10 02:40:42;;;;;;;11.57;10.02;;;20.60;1.00;;;;;;5052927;28;20166;-67
2023/06/10 02:43:09;;;;;;;11.50;9.68;;;20.50;1.00;;;;;;5035305;28;20590;-67
2023/06/10 02:45:34;;;;;;;11.98;9.95;;;20.30;1.00;;;;;;5053211;28;20180;-68
2023/06/10 02:48:00;;;;;;;11.20;10.05;;;20.20;1.00;;;;;;5035288;28;20209;-67
2023/06/10 02:50:26;;;;;;;13.60;10.23;;;20.10;1.00;;;;;;5035484;28;20713;-67
2023/06/10 02:52:51;;;;;;;11.77;10.05;;;20.20;1.00;;;;;;5052543;28;20180;-68
2023/06/10 02:55:17;;;;;;;11.05;9.85;;;20.10;1.00;;;;;;5052958;28;20165;-68
2023/06/10 02:57:42;;;;;;;11.73;10.55;;;20.10;1.00;;;;;;5053046;28;20173;-68
2023/06/10 03:00:10;;;;;;;11.32;10.15;;;20.00;1.00;;;;;;5053213;28;20252;-67
2023/06/10 03:02:36;;;;;;;18.33;10.68;;;19.90;1.00;;;;;;5053366;28;20177;-68
2023/06/10 03:05:02;;;;;;;11.05;9.73;;;19.90;1.00;;;;;;5053298;28;20260;-67
2023/06/10 03:07:28;;;;;;;13.15;11.77;;;19.90;1.00;;;;;;5053005;28;20196;-68
2023/06/10 03:09:54;;;;;;;12.57;11.07;;;19.80;1.00;;;;;;5052657;28;20172;-68
2023/06/10 03:12:19;;;;;;;12.63;10.95;;;19.80;1.00;;;;;;5053212;28;20632;-67
2023/06/10 03:14:45;;;;;;;11.40;10.07;;;19.80;1.00;;;;;;5053152;28;20177;-68
2023/06/10 03:17:10;;;;;;;11.27;10.13;;;19.70;1.00;;;;;;5053020;28;20633;-68
2023/06/10 03:19:37;;;;;;;11.48;10.48;;;19.70;1.00;;;;;;5052767;28;20173;-68
2023/06/10 03:22:10;;;;;;;19.13;11.90;;;19.60;1.00;;;;;;5053073;28;20218;-68
2023/06/10 03:24:36;;;;;;;21.70;11.05;;;19.70;1.00;;;;;;5052749;28;20176;-68
2023/06/10 03:27:04;;;;;;;13.95;11.32;;;19.70;1.00;;;;;;5052652;28;20540;-67
2023/06/10 03:29:30;;;;;;;12.10;10.85;;;19.70;1.00;;;;;;5035101;28;20746;-69
2023/06/10 03:31:56;;;;;;;13.23;10.85;;;19.80;1.00;;;;;;5035379;28;20181;-68
2023/06/10 03:34:23;;;;;;;15.25;10.50;;;19.70;1.00;;;;;;5034909;28;20529;-67
2023/06/10 03:36:49;;;;;;;11.88;10.55;;;19.80;1.00;;;;;;5052489;28;20220;-67
2023/06/10 03:39:15;;;;;;;13.35;11.13;;;19.80;1.00;;;;;;5052334;28;20200;-67
2023/06/10 03:41:41;;;;;;;12.52;11.30;;;19.80;1.00;;;;;;5052887;28;20256;-68
2023/06/10 03:44:06;;;;;;;15.95;11.57;;;19.70;1.00;;;;;;5052336;28;20672;-67
2023/06/10 03:46:32;;;;;;;16.90;11.55;;;19.80;1.00;;;;;;5052613;28;20203;-68
2023/06/10 03:49:00;;;;;;;11.90;10.60;;;19.90;1.00;;;;;;5034608;28;20256;-68
2023/06/10 03:51:26;;;;;;;12.10;10.82;;;20.10;1.00;;;;;;5052796;28;20157;-67
2023/06/10 03:53:52;;;;;;;12.75;10.38;;;20.20;1.00;;;;;;5052178;28;20177;-67
2023/06/10 03:56:17;;;;;;;12.65;11.43;;;20.40;1.00;;;;;;5052446;28;20568;-67
2023/06/10 03:58:43;;;;;;;13.63;10.52;;;20.60;1.00;;;;;;5034683;28;20184;-67
2023/06/10 04:01:10;;;;;;;13.35;11.27;;;20.90;1.00;;;;;;5052632;28;20174;-69
2023/06/10 04:03:36;;;;;;;12.10;10.90;;;21.10;1.00;;;;;;5036251;28;20176;-69
2023/06/10 04:06:02;;;;;;;11.73;10.60;;;21.40;1.00;;;;;;5056063;28;20165;-69
2023/06/10 04:08:28;;;;;;;14.05;11.02;;;21.80;1.00;;;;;;5055868;28;20213;-69
2023/06/10 04:10:53;;;;;;;11.27;10.10;;;21.90;1.00;;;;;;5056222;28;20644;-68
2023/06/10 04:13:19;;;;;;;12.30;11.18;;;21.90;1.00;;;;;;5056090;28;20192;-69
2023/06/10 04:15:45;;;;;;;11.35;10.35;;;21.80;1.00;;;;;;5055729;28;20629;-68
2023/06/10 04:18:10;;;;;;;12.05;10.43;;;22.10;1.00;;;;;;5056095;28;20502;-68
2023/06/10 04:20:36;;;;;;;11.45;10.45;;;22.30;1.00;;;;;;5055361;28;20205;-68
2023/06/10 04:23:02;;;;;;;11.57;10.35;;;22.50;1.00;;;;;;5055283;28;20252;-69
2023/06/10 04:25:28;;;;;;;11.48;10.30;;;22.70;1.00;;;;;;5055591;28;20170;-70
2023/06/10 04:27:54;;;;;;;19.15;10.77;;;22.70;1.00;;;;;;5055157;28;20267;-68
2023/06/10 04:30:20;;;;;;;12.40;10.85;;;23.10;99.90;;;;;;5055270;28;20617;-69
2023/06/10 04:32:46;;;;;;;12.15;10.98;;;23.60;1.00;;;;;;5055595;28;20176;-67
2023/06/10 04:35:13;;;;;;;19.15;11.25;;;24.00;99.90;;;;;;5054882;28;20346;-68
2023/06/10 04:37:39;;;;;;;11.88;10.68;;;24.40;1.00;;;;;;5054994;28;20173;-68
2023/06/10 04:40:06;;;;;;;11.88;10.70;;;24.70;99.90;;;;;;5055736;28;20252;-69
2023/06/10 04:42:32;;;;;;;11.40;10.40;;;25.20;1.00;;;;;;5055035;28;20170;-70
2023/06/10 04:44:57;;;;;;;11.27;10.15;;;25.70;1.00;;;;;;5037248;28;20189;-69
2023/06/10 04:47:23;;;;;;;11.38;10.27;;;25.80;99.90;;;;;;5055120;28;20552;-70
2023/06/10 04:49:48;;;;;;;11.20;10.20;;;26.00;99.90;;;;;;5054895;28;20179;-70
2023/06/10 04:52:14;;;;;;;11.85;10.05;;;25.60;1.00;;;;;;5054885;28;20177;-70
2023/06/10 04:54:40;;;;;;;11.88;10.30;;;25.60;1.00;;;;;;5037527;28;20173;-69
2023/06/10 04:57:07;;;;;;;10.80;9.80;;;26.00;1.00;;;;;;5054761;28;20678;-70
2023/06/10 04:59:37;;;;;;;11.40;10.30;;;25.80;1.00;;;;;;5055109;28;20622;-70
2023/06/10 05:02:03;;;;;;;10.13;9.23;;;26.40;1.00;;;;;;5054977;28;20170;-69
2023/06/10 05:04:29;;;;;;;12.70;10.15;;;26.90;1.00;;;;;;5054847;28;20196;-69
2023/06/10 05:06:55;;;;;;;10.85;9.75;;;27.40;1.00;;;;;;5054666;28;20181;-70
2023/06/10 05:09:21;;;;;;;11.40;10.35;;;27.00;1.00;;;;;;5054262;28;20270;-70
2023/06/10 05:11:46;;;;;;;10.45;9.63;;;26.50;1.00;;;;;;5054479;28;20174;-68
2023/06/10 05:14:12;;;;;;;10.57;9.60;;;26.60;1.00;;;;;;5054358;28;20207;-69
2023/06/10 05:16:38;;;;;;;11.30;9.93;;;27.00;1.00;;;;;;5054030;28;20180;-69
2023/06/10 05:19:04;;;;;;;11.25;9.68;;;27.00;1.00;;;;;;5054972;28;20200;-69
2023/06/10 05:21:30;;;;;;;11.32;10.18;;;28.00;99.90;;;;;;5054290;28;20193;-69
2023/06/10 05:23:55;;;;;;;11.52;10.43;;;28.80;1.00;;;;;;5054370;28;20632;-69
2023/06/10 05:26:21;;;;;;;10.60;9.70;;;28.40;1.00;;;;;;5054476;28;20527;-69
2023/06/10 05:28:47;;;;;;;9.77;8.82;;;28.90;1.00;;;;;;5036721;28;20567;-69
2023/06/10 05:31:13;;;;;;;10.57;9.57;;;29.50;1.00;;;;;;5036682;28;20173;-69
2023/06/10 05:33:39;;;;;;;9.98;9.13;;;30.30;1.00;;;;;;5054483;28;20180;-69
2023/06/10 05:36:05;;;;;;;9.80;9.00;;;30.40;1.00;;;;;;5053926;28;20228;-69
2023/06/10 05:38:31;;;;;;;10.50;9.60;;;29.80;1.00;;;;;;5036552;28;20173;-69
2023/06/10 05:40:56;;;;;;;11.57;9.52;;;29.10;1.00;;;;;;5036402;28;20223;-69
2023/06/10 05:43:22;;;;;;;9.80;8.93;;;28.80;1.00;;;;;;5036476;28;20286;-69
2023/06/10 05:45:48;;;;;;;10.20;9.32;;;29.30;1.00;;;;;;5036104;28;20173;-69
2023/06/10 05:48:14;;;;;;;9.98;9.02;;;29.40;1.00;;;;;;5053833;28;20413;-69
2023/06/10 05:50:42;;;;;;;10.07;9.13;;;29.30;1.00;;;;;;5053638;28;20165;-69
2023/06/10 05:53:14;;;;;;;9.95;8.77;;;30.70;1.00;;;;;;5054053;28;20178;-69
2023/06/10 05:55:44;;;;;;;9.63;8.85;;;31.20;99.90;;;;;;5053829;28;20248;-68
2023/06/10 05:58:10;;;;;;;9.48;8.65;;;30.50;99.90;;;;;;5036070;28;20629;-68
2023/06/10 06:00:35;;;;;;;9.15;8.45;;;29.70;99.90;;;;;;5035529;28;20181;-69
2023/06/10 06:03:01;;;;;;;9.73;8.88;;;30.00;99.90;;;;;;5053110;28;20655;-69
2023/06/10 06:05:26;;;;;;;10.15;9.25;;;29.70;99.90;;;;;;5035338;28;20222;-69
2023/06/10 06:07:52;;;;;;;9.70;8.80;;;29.80;1.00;;;;;;5053688;28;20201;-69
2023/06/10 06:10:18;;;;;;;10.15;9.13;;;30.20;99.90;;;;;;5053578;28;20180;-69
2023/06/10 06:12:45;;;;;;;9.80;8.90;;;29.80;99.90;;;;;;5053637;28;20246;-69
2023/06/10 06:15:11;;;;;;;9.55;8.75;;;29.60;99.90;;;;;;5053323;28;20172;-70
2023/06/10 06:17:36;;;;;;;9.50;8.80;;;30.40;99.90;;;;;;5053085;28;20165;-70
2023/06/10 06:20:03;;;;;;;9.65;8.75;;;30.60;99.90;;;;;;5053615;28;20189;-69
2023/06/10 06:22:29;;;;;;;9.52;8.73;;;29.10;99.90;;;;;;5053258;28;20672;-71
2023/06/10 06:24:54;;;;;;;9.93;9.13;;;29.10;1.00;;;;;;5053506;28;20264;-70
2023/06/10 06:27:20;;;;;;;9.85;9.05;;;29.90;99.90;;;;;;5053051;28;20175;-71
2023/06/10 06:29:46;;;;;;;9.65;8.65;;;29.90;99.90;;;;;;5052846;28;20655;-70
2023/06/10 06:32:12;;;;;;;9.23;8.43;;;29.20;1.00;;;;;;5052985;28;20173;-70
2023/06/10 06:34:37;;;;;;;9.57;8.77;;;29.40;1.00;;;;;;5052593;28;20248;-70
2023/06/10 06:37:03;;;;;;;10.05;9.02;;;30.00;99.90;;;;;;5052743;28;20181;-70
2023/06/10 06:39:29;;;;;;;9.75;8.90;;;29.70;99.90;;;;;;5053222;28;20173;-71
2023/06/10 06:41:54;;;;;;;9.45;8.63;;;29.20;1.00;;;;;;5052768;28;20182;-70
2023/06/10 06:44:20;;;;;;;9.75;8.90;;;29.40;99.90;;;;;;5052863;28;20193;-71
2023/06/10 06:46:46;;;;;;;9.85;8.80;;;29.20;1.00;;;;;;5034830;28;20215;-70
2023/06/10 06:49:11;;;;;;;8.95;8.25;;;30.10;1.00;;;;;;5052355;28;20660;-70
2023/06/10 06:51:37;;;;;;;11.57;8.15;;;31.00;99.90;;;;;;5052774;28;20609;-71
2023/06/10 06:54:03;;;;;;;10.02;8.25;;;32.60;99.90;;;;;;5052843;28;20169;-70
2023/06/10 06:56:28;;;;;;;8.85;7.93;;;32.30;99.90;;;;;;5052803;28;20161;-70
2023/06/10 06:58:56;;;;;;;8.55;7.88;;;33.10;99.90;;;;;;5033969;28;20185;-71
2023/06/10 07:01:22;;;;;;;8.52;7.88;;;34.00;99.90;;;;;;5017941;28;20185;-69
2023/06/10 07:03:47;;;;;;;8.70;7.90;;;34.10;99.90;;;;;;5052477;28;20623;-69
2023/06/10 07:06:13;;;;;;;8.15;7.55;;;34.20;99.90;;;;;;5052561;28;20219;-70
2023/06/10 07:08:39;;;;;;;8.32;7.63;;;33.50;99.90;;;;;;5052921;28;20295;-69
2023/06/10 07:11:04;;;;;;;8.23;7.68;;;32.00;99.90;;;;;;5052451;28;20169;-70
2023/06/10 07:13:30;;;;;;;8.20;7.65;;;31.80;99.90;;;;;;5052716;28;20169;-69
2023/06/10 07:15:56;;;;;;;9.85;7.68;;;30.60;99.90;;;;;;5034709;28;20165;-69
2023/06/10 07:18:21;;;;;;;9.25;8.52;;;30.00;99.90;;;;;;5052042;28;20537;-68
2023/06/10 07:20:47;;;;;;;8.65;7.90;;;31.20;99.90;;;;;;5052365;28;20256;-69
2023/06/10 07:23:13;;;;;;;8.60;7.90;;;32.10;99.90;;;;;;5052897;28;20268;-69
2023/06/10 07:25:38;;;;;;;8.20;7.60;;;31.90;99.90;;;;;;5052369;28;20165;-69
2023/06/10 07:28:04;;;;;;;8.00;7.50;;;32.10;99.90;;;;;;5034319;28;20248;-68
2023/06/10 07:30:30;;;;;;;8.52;7.82;;;31.40;99.90;;;;;;5051925;28;20161;-69
2023/06/10 07:32:56;;;;;;;8.60;7.75;;;31.00;99.90;;;;;;5034685;28;20174;-69
2023/06/10 07:35:21;;;;;;;8.95;8.05;;;31.30;99.90;;;;;;5052211;28;20636;-69
2023/06/10 07:37:47;;;;;;;8.02;7.32;;;30.40;99.90;;;;;;5035024;28;20208;-68
2023/06/10 07:40:13;;;;;;;8.15;7.55;;;29.40;99.90;;;;;;5056046;28;20165;-69
2023/06/10 07:42:38;;;;;;;9.48;8.27;;;29.70;99.90;;;;;;5055587;28;20224;-69
2023/06/10 07:45:05;;;;;;;8.70;7.80;;;30.00;99.90;;;;;;5056125;28;20200;-69
2023/06/10 07:47:32;;;;;;;8.88;8.05;;;29.90;99.90;;;;;;5055778;28;20242;-69
2023/06/10 07:49:58;;;;;;;8.50;7.80;;;30.20;99.90;;;;;;5056046;28;20172;-69
2023/06/10 07:52:25;;;;;;;8.38;7.70;;;30.20;99.90;;;;;;5038740;28;20169;-68
2023/06/10 07:54:51;;;;;;;8.13;7.55;;;29.50;99.90;;;;;;5056117;28;20254;-68
2023/06/10 07:57:17;;;;;;;8.00;7.22;;;30.00;99.90;;;;;;5055732;28;20192;-69
2023/06/10 07:59:44;;;;;;;9.32;7.70;;;29.80;99.90;;;;;;5055338;28;20664;-69
2023/06/10 08:02:09;;;;;;;7.75;7.20;;;31.30;99.90;;;;;;5056289;28;20594;-70
2023/06/10 08:04:35;;;;;;;8.35;7.65;;;32.50;99.90;;;;;;5038077;28;20181;-69
2023/06/10 08:07:02;;;;;;;7.45;6.93;;;33.20;99.90;;;;;;5055595;28;20262;-68
2023/06/10 08:09:28;;;;;;;8.23;7.53;;;32.60;99.90;;;;;;5055150;28;20258;-71
2023/06/10 08:11:53;;;;;;;7.70;7.10;;;31.90;99.90;;;;;;5055641;28;20204;-70
2023/06/10 08:14:19;;;;;;;7.60;7.10;;;32.10;99.90;;;;;;5055844;28;20177;-70
2023/06/10 08:16:45;;;;;;;8.10;7.40;;;33.20;99.90;;;;;;5055724;28;20174;-70
2023/06/10 08:19:11;;;;;;;8.38;7.68;;;32.70;99.90;;;;;;5037313;28;20180;-70
2023/06/10 08:21:39;;;;;;;8.25;7.05;;;33.40;99.90;;;;;;5055860;28;20165;-69
2023/06/10 08:24:08;;;;;;;8.07;7.40;;;32.90;99.90;;;;;;5037279;28;20628;-70
2023/06/10 08:26:34;;;;;;;7.93;7.30;;;32.50;99.90;;;;;;5037817;28;20177;-69
2023/06/10 08:29:00;;;;;;;7.13;6.70;;;32.60;99.90;;;;;;5055210;28;20223;-69
2023/06/10 08:31:25;;;;;;;7.47;6.78;;;32.70;99.90;;;;;;5054716;28;20167;-70
2023/06/10 08:33:51;;;;;;;7.20;6.70;;;32.10;99.90;;;;;;5055653;28;20539;-70
2023/06/10 08:36:17;;;;;;;7.40;6.70;;;32.10;99.90;;;;;;5055269;28;20623;-69
2023/06/10 08:38:42;;;;;;;7.60;7.03;;;32.70;99.90;;;;;;5037520;28;20709;-70
2023/06/10 08:41:13;;;;;;;7.28;6.75;;;33.10;99.90;;;;;;5054957;28;20173;-69
2023/06/10 08:44:03;;;;;;;7.50;6.80;;;33.60;99.90;;;;;;5054792;28;20219;-69
2023/06/10 08:46:31;;;;;;;6.93;6.32;;;34.10;99.90;;;;;;5055084;28;20181;-69
2023/06/10 08:49:02;;;;;;;6.97;6.45;;;33.60;99.90;;;;;;5036499;28;20311;-70
2023/06/10 08:51:30;;;;;;;7.22;6.53;;;31.70;99.90;;;;;;5054377;28;20173;-70
2023/06/10 08:54:15;;;;;;;6.75;6.20;;;33.00;99.90;;;;;;5037067;28;20177;-71
2023/06/10 08:56:41;;;;;;;6.65;6.15;;;34.40;99.90;;;;;;5054790;28;20173;-69
2023/06/10 08:59:07;;;;;;;6.57;6.18;;;33.70;99.90;;;;;;5054263;28;20173;-71
2023/06/10 09:01:33;;;;;;;6.20;5.80;;;33.40;99.90;;;;;;5055254;28;20177;-70
2023/06/10 09:03:59;;;;;;;6.80;6.20;;;34.30;99.90;;;;;;5054490;28;20176;-70
2023/06/10 09:06:26;;;;;;;6.32;5.85;;;34.00;99.90;;;;;;5054660;28;20177;-70
2023/06/10 09:08:52;;;;;;;6.72;6.20;;;33.20;99.90;;;;;;5054738;28;20213;-70
2023/06/10 09:11:18;;;;;;;6.90;6.30;;;32.90;99.90;;;;;;5054780;28;20617;-70
2023/06/10 09:13:43;;;;;;;7.68;6.22;;;32.40;99.90;;;;;;5054238;28;20169;-70
2023/06/10 09:16:11;;;;;;;6.55;6.05;;;31.70;99.90;;;;;;5054425;28;20260;-71
2023/06/10 09:18:37;;;;;;;6.70;5.80;;;32.00;99.90;;;;;;5054354;28;20181;-71
2023/06/10 09:21:03;;;;;;;6.22;5.72;;;32.80;99.90;;;;;;5054494;28;20248;-71
2023/06/10 09:23:29;;;;;;;6.20;5.80;;;33.90;99.90;;;;;;5054814;28;20252;-72
2023/06/10 09:25:59;;;;;;;6.00;5.57;;;33.90;97.50;;;;;;5054051;28;20278;-70
2023/06/10 09:28:25;;;;;;;6.82;6.25;;;34.30;99.90;;;;;;5054190;28;20714;-70
2023/06/10 09:31:08;;;;;;;6.53;5.97;;;33.70;96.60;;;;;;5036018;28;20256;-71
2023/06/10 09:33:38;;;;;;;6.53;6.07;;;34.00;96.40;;;;;;5035816;28;20235;-71
2023/06/10 09:36:04;;;;;;;6.93;6.15;;;33.40;99.90;;;;;;5036324;28;20235;-69
2023/06/10 09:38:31;;;;;;;5.90;5.60;;;32.10;99.30;;;;;;5054208;28;20252;-71
2023/06/10 09:40:58;;;;;;;6.22;5.70;;;32.60;99.90;;;;;;5035689;28;20260;-70
2023/06/10 09:43:42;;;;;;;7.07;6.47;;;32.80;99.50;;;;;;5036018;28;20238;-71
2023/06/10 09:46:18;;;;;;;6.40;5.80;;;32.80;98.60;;;;;;5053469;28;20157;-71
2023/06/10 09:48:45;;;;;;;6.43;6.03;;;33.50;94.10;;;;;;5036034;28;20316;-70
2023/06/10 09:51:11;;;;;;;6.60;6.00;;;33.20;93.70;;;;;;5035960;28;20169;-71
2023/06/10 09:53:37;;;;;;;6.78;5.95;;;33.60;95.60;;;;;;5035962;28;20212;-72
2023/06/10 09:56:03;;;;;;;7.15;6.40;;;32.90;94.40;;;;;;5053001;28;20165;-71
2023/06/10 09:58:37;;;;;;;7.10;6.60;;;32.70;95.20;;;;;;5053413;28;20730;-70
2023/06/10 10:01:08;;;;;;;9.10;8.25;;;33.10;98.70;;;;;;5053634;28;20185;-71
2023/06/10 10:03:33;;;;;;;8.75;8.05;;;33.40;91.20;;;;;;5036175;28;20295;-71
2023/06/10 10:06:02;;;;;;;6.28;5.78;;;33.40;81.90;;;;;;5053592;28;20617;-71
2023/06/10 10:08:28;;;;;;;7.90;6.30;;;33.70;78.10;;;;;;5053153;28;20197;-70
2023/06/10 10:10:56;;;;;;;8.65;7.80;;;32.60;76.60;;;;;;5052535;28;20516;-69
2023/06/10 10:13:22;;;;;;;7.53;6.75;;;32.30;77.30;;;;;;5034988;28;20512;-70
2023/06/10 10:15:48;;;;;;;6.13;5.57;;;32.30;88.20;;;;;;5035928;28;20181;-70
2023/06/10 10:18:19;;;;;;;6.35;5.80;;;32.70;73.00;;;;;;5053106;28;20174;-72
2023/06/10 10:20:55;;;;;;;6.18;5.68;;;32.70;77.50;;;;;;5035307;28;20192;-70
2023/06/10 10:23:43;;;;;;;6.78;6.18;;;32.40;71.60;;;;;;5053692;28;20762;-70
2023/06/10 10:26:11;;;;;;;6.95;6.30;;;31.50;84.90;;;;;;5015424;28;20266;-70
2023/06/10 10:28:43;;;;;;;8.23;7.43;;;31.70;73.90;;;;;;5053273;28;20220;-71
2023/06/10 10:31:12;;;;;;;6.82;6.30;;;32.60;83.60;;;;;;5052709;28;20235;-71
2023/06/10 10:33:51;;;;;;;6.70;6.05;;;32.40;78.20;;;;;;5052925;28;20208;-71
2023/06/10 10:36:18;;;;;;;7.90;6.25;;;32.90;61.60;;;;;;5051996;28;20224;-71
2023/06/10 10:38:47;;;;;;;7.00;6.47;;;32.70;50.70;;;;;;5052915;28;20169;-71
2023/06/10 10:41:15;;;;;;;6.50;6.00;;;32.70;59.20;;;;;;5052477;28;20227;-71
2023/06/10 10:43:42;;;;;;;6.30;5.88;;;32.80;57.80;;;;;;5052498;28;20274;-70
2023/06/10 10:46:12;;;;;;;6.00;5.50;;;33.20;50.60;;;;;;5035151;28;20199;-71
2023/06/10 10:48:40;;;;;;;6.20;5.70;;;33.40;45.10;;;;;;5052725;28;20695;-72
2023/06/10 10:51:07;;;;;;;6.50;5.93;;;33.00;41.70;;;;;;5052550;28;20177;-71
2023/06/10 10:53:33;;;;;;;6.28;5.88;;;33.20;45.10;;;;;;5052782;28;20177;-70
2023/06/10 10:56:08;;;;;;;7.30;6.60;;;32.80;34.10;;;;;;5052128;28;20640;-70
2023/06/10 10:58:34;;;;;;;6.22;5.75;;;32.50;34.20;;;;;;5052801;28;20263;-69
2023/06/10 11:01:09;;;;;;;6.57;6.10;;;31.80;34.50;;;;;;5052611;28;20261;-71
2023/06/10 11:03:44;;;;;;;7.55;6.95;;;31.80;41.40;;;;;;5034257;28;20183;-72
2023/06/10 11:06:14;;;;;;;5.90;5.50;;;32.60;36.40;;;;;;5052169;28;20172;-70
2023/06/10 11:08:39;;;;;;;6.15;5.57;;;32.30;17.10;;;;;;5052396;28;20240;-70
2023/06/10 11:11:19;;;;;;;7.93;6.00;;;32.10;12.00;;;;;;5034758;28;20620;-69
2023/06/10 11:14:00;;;;;;;6.97;6.30;;;31.70;21.90;;;;;;5033677;28;20183;-70
2023/06/10 11:16:27;;;;;;;7.45;6.85;;;31.20;32.00;;;;;;5052292;28;20195;-69
2023/06/10 11:18:56;;;;;;;5.57;5.10;;;30.40;28.50;;;;;;5052427;28;20201;-70
2023/06/10 11:21:25;;;;;;;5.97;5.47;;;30.80;25.40;;;;;;5052002;28;20169;-69
2023/06/10 11:23:51;;;;;;;8.45;4.90;;;30.80;22.10;;;;;;5051850;28;20215;-69
2023/06/10 11:26:31;;;;;;;6.43;5.70;;;31.00;19.20;;;;;;5033955;28;20489;-70
2023/06/10 11:28:56;;;;;;;6.50;5.88;;;31.10;17.00;;;;;;5034857;28;20688;-70
2023/06/10 11:31:26;;;;;;;6.40;5.90;;;31.00;17.40;;;;;;5052103;28;20219;-68
2023/06/10 11:34:06;;;;;;;6.20;5.70;;;30.90;22.90;;;;;;5033562;28;20196;-69
2023/06/10 11:36:33;;;;;;;6.25;5.70;;;31.20;27.80;;;;;;5014621;28;20222;-70
2023/06/10 11:39:06;;;;;;;5.95;5.40;;;31.50;31.70;;;;;;5011437;28;20185;-72
2023/06/10 11:41:33;;;;;;;6.30;5.80;;;31.60;29.30;;;;;;5012319;28;20170;-70
2023/06/10 11:44:04;;;;;;;6.38;5.88;;;31.40;32.00;;;;;;5011862;28;20729;-70
2023/06/10 11:46:30;;;;;;;7.70;7.00;;;31.00;37.20;;;;;;5012482;28;20183;-70
2023/06/10 11:48:58;;;;;;;7.75;7.15;;;31.20;32.30;;;;;;5012510;28;20202;-71
2023/06/10 11:51:30;;;;;;;7.47;6.72;;;31.40;32.90;;;;;;5010927;28;20642;-70
2023/06/10 11:53:56;;;;;;;6.82;6.13;;;31.90;25.90;;;;;;5010823;28;20662;-70
2023/06/10 11:56:29;;;;;;;6.68;6.18;;;31.50;18.00;;;;;;5011302;28;20167;-70
2023/06/10 11:59:04;;;;;;;6.38;5.78;;;31.30;23.20;;;;;;5010384;28;20178;-69
2023/06/10 12:01:30;;;;;;;6.57;6.07;;;31.40;22.40;;;;;;5012595;28;20204;-70
2023/06/10 12:04:02;;;;;;;6.82;6.25;;;31.30;40.70;;;;;;5011157;28;20179;-71
2023/06/10 12:06:37;;;;;;;7.50;6.80;;;31.20;23.40;;;;;;5011548;28;20171;-70
2023/06/10 12:09:03;;;;;;;7.45;6.85;;;30.90;24.90;;;;;;5012186;28;20202;-69
2023/06/10 12:11:29;;;;;;;7.35;6.55;;;30.80;24.80;;;;;;5011897;28;20282;-71
2023/06/10 12:13:54;;;;;;;8.95;6.30;;;30.80;25.00;;;;;;5012141;28;20213;-69
2023/06/10 12:16:20;;;;;;;6.97;6.47;;;31.10;21.70;;;;;;5012532;28;20170;-70
2023/06/10 12:18:46;;;;;;;7.22;6.70;;;31.40;29.30;;;;;;5012914;28;20214;-70
2023/06/10 12:21:21;;;;;;;9.38;8.02;;;31.00;29.90;;;;;;5012011;28;20171;-70
2023/06/10 12:24:00;;;;;;;7.95;7.35;;;30.90;41.60;;;;;;5012891;28;20178;-69
2023/06/10 12:26:44;;;;;;;7.60;6.60;;;30.90;39.90;;;;;;5015508;28;20166;-70
2023/06/10 12:29:26;;;;;;;7.15;6.65;;;30.80;38.60;;;;;;5015421;28;20210;-70
2023/06/10 12:32:04;;;;;;;8.68;7.90;;;30.90;39.20;;;;;;5015590;28;20184;-71
2023/06/10 12:34:31;;;;;;;8.48;7.78;;;31.00;30.80;;;;;;5014845;28;20167;-70
2023/06/10 12:36:57;;;;;;;7.55;6.88;;;31.20;34.50;;;;;;5013767;28;20288;-70
2023/06/10 12:39:23;;;;;;;7.60;6.88;;;31.40;31.80;;;;;;5015648;28;20206;-68
2023/06/10 12:41:49;;;;;;;7.18;6.20;;;31.40;28.80;;;;;;5015720;28;20210;-69
2023/06/10 12:44:15;;;;;;;7.28;6.65;;;30.70;24.90;;;;;;5014933;28;20195;-71